Time;durP1;ratioP1;P1;durP2;ratioP2;P2;SDS_P1;SDS_P2;PMS_P1;PMS_P2;Temp;Humidity;BMP_temperature;BMP_pressure;BME280_temperature;BME280_humidity;BME280_pressure;Samples;Min_cycle;Max_cycle;Signal;HPM_P1;HPM_P2
2022/09/02 00:01:25;;;;;;;0.40;0.28;;;;;;;23.97;44.17;101813.16;5066688;28;20125;-41
2022/09/02 00:03:54;;;;;;;0.32;0.30;;;;;;;23.94;44.43;101804.34;5065978;28;20075;-42
2022/09/02 00:06:19;;;;;;;0.55;0.38;;;;;;;23.95;44.29;101806.03;5066659;28;20013;-41
2022/09/02 00:08:45;;;;;;;0.40;0.22;;;;;;;23.95;44.37;101802.47;5066168;28;20416;-45
2022/09/02 00:11:16;;;;;;;0.32;0.30;;;;;;;23.94;44.30;101807.06;5063434;28;20032;-43
2022/09/02 00:13:42;;;;;;;0.50;0.30;;;;;;;23.90;44.28;101796.75;5056445;28;20020;-42
2022/09/02 00:16:09;;;;;;;0.65;0.40;;;;;;;23.93;44.39;101799.09;5064899;28;20025;-44
2022/09/02 00:18:35;;;;;;;0.50;0.30;;;;;;;23.90;44.26;101794.03;5066265;28;20692;-42
2022/09/02 00:21:00;;;;;;;0.25;0.25;;;;;;;23.90;44.34;101792.16;5066019;28;20035;-43
2022/09/02 00:23:26;;;;;;;0.38;0.20;;;;;;;23.90;44.14;101802.16;5058383;28;20096;-42
2022/09/02 00:25:51;;;;;;;0.20;0.20;;;;;;;23.89;44.24;101792.34;5057267;28;20032;-41
2022/09/02 00:28:16;;;;;;;0.45;0.40;;;;;;;23.88;44.01;101790.66;5066669;28;20029;-48
2022/09/02 00:30:42;;;;;;;0.20;0.20;;;;;;;23.83;44.34;101785.78;5061236;28;20020;-46
2022/09/02 00:33:08;;;;;;;0.77;0.50;;;;;;;23.87;44.11;101792.53;5058292;28;20029;-42
2022/09/02 00:35:33;;;;;;;0.30;0.30;;;;;;;23.86;44.16;101793.53;5051774;28;20036;-40
2022/09/02 00:37:59;;;;;;;0.60;0.30;;;;;;;23.83;44.05;101779.47;5055850;28;20089;-41
2022/09/02 00:40:25;;;;;;;0.30;0.25;;;;;;;23.85;43.96;101788.28;5060491;28;20033;-43
2022/09/02 00:42:51;;;;;;;0.22;0.22;;;;;;;23.85;44.19;101786.41;5054071;28;20030;-41
2022/09/02 00:45:17;;;;;;;0.30;0.20;;;;;;;23.84;44.21;101786.59;5052039;28;20060;-43
2022/09/02 00:47:44;;;;;;;0.30;0.30;;;;;;;23.80;44.17;101774.41;5058099;28;20036;-42
2022/09/02 00:50:12;;;;;;;0.50;0.32;;;;;;;23.82;44.16;101777.78;5059963;28;20043;-42
2022/09/02 00:52:41;;;;;;;0.40;0.30;;;;;;;23.80;43.98;101775.25;5060930;28;20097;-40
2022/09/02 00:55:19;;;;;;;0.63;0.30;;;;;;;23.82;44.07;101777.78;5057154;28;20360;-43
2022/09/02 00:57:48;;;;;;;0.20;0.20;;;;;;;23.80;43.98;101774.41;5051738;28;20402;-42
2022/09/02 01:00:17;;;;;;;0.40;0.32;;;;;;;23.78;44.09;101774.56;5065795;28;20032;-41
2022/09/02 01:02:47;;;;;;;0.25;0.25;;;;;;;23.78;44.17;101769.16;5062683;28;20399;-45
2022/09/02 01:05:15;;;;;;;0.50;0.40;;;;;;;23.78;44.10;101773.72;5064520;28;20119;-44
2022/09/02 01:07:42;;;;;;;0.20;0.20;;;;;;;23.78;44.00;101771.84;5063868;28;20116;-41
2022/09/02 01:10:17;;;;;;;0.30;0.30;;;;;;;23.78;43.88;101776.44;5058256;28;20088;-41
2022/09/02 01:12:42;;;;;;;0.30;0.30;;;;;;;23.75;43.82;101765.97;5063226;28;20500;-41
2022/09/02 01:15:10;;;;;;;0.32;0.20;;;;;;;23.75;44.01;101765.97;5053637;28;20037;-43
2022/09/02 01:17:38;;;;;;;0.63;0.30;;;;;;;23.75;43.93;101768.69;5051129;28;20471;-42
2022/09/02 01:20:07;;;;;;;0.22;0.22;;;;;;;23.74;43.99;101761.53;5065086;28;20520;-43
2022/09/02 01:22:32;;;;;;;1.08;0.40;;;;;;;23.71;43.79;101762.75;5052056;28;20038;-45
2022/09/02 01:25:04;;;;;;;0.40;0.30;;;;;;;23.72;43.94;101764.44;5059402;28;20036;-42
2022/09/02 01:27:29;;;;;;;0.32;0.30;;;;;;;23.69;43.76;101757.50;5049337;28;20036;-45
2022/09/02 01:29:56;;;;;;;0.20;0.20;;;;;;;23.70;43.77;101761.06;5058817;28;20028;-42
2022/09/02 01:32:23;;;;;;;0.40;0.30;;;;;;;23.67;43.78;101756.00;5063734;28;20456;-45
2022/09/02 01:34:48;;;;;;;0.28;0.20;;;;;;;23.68;43.83;101758.53;5053147;28;20026;-46
2022/09/02 01:37:13;;;;;;;0.45;0.30;;;;;;;23.68;43.97;101758.53;5058376;28;20025;-47
2022/09/02 01:39:39;;;;;;;0.68;0.32;;;;;;;23.67;43.60;101751.41;5055284;28;20488;-45
2022/09/02 01:42:04;;;;;;;0.40;0.30;;;;;;;23.67;43.78;101750.56;5064806;28;20082;-45
2022/09/02 01:44:30;;;;;;;0.30;0.30;;;;;;;23.64;43.71;101749.00;5063376;28;20122;-42
2022/09/02 01:46:55;;;;;;;0.38;0.30;;;;;;;23.65;43.76;101747.19;5064896;28;20585;-43
2022/09/02 01:49:21;;;;;;;0.28;0.28;;;;;;;23.59;43.95;101739.72;5064461;28;20021;-43
2022/09/02 01:51:47;;;;;;;0.30;0.30;;;;;;;23.65;43.84;101747.19;5064885;28;20029;-45
2022/09/02 01:54:13;;;;;;;0.30;0.30;;;;;;;23.64;43.66;101745.47;5060777;28;20113;-46
2022/09/02 01:56:38;;;;;;;0.40;0.30;;;;;;;23.63;43.81;101743.78;5061321;28;20037;-45
2022/09/02 01:59:06;;;;;;;0.30;0.30;;;;;;;23.62;43.83;101748.38;5063065;28;20028;-42
2022/09/02 02:01:32;;;;;;;1.05;0.20;;;;;;;23.60;43.59;101744.97;5051237;28;20028;-43
2022/09/02 02:03:57;;;;;;;0.47;0.30;;;;;;;23.61;43.71;101748.53;5063842;28;20067;-42
2022/09/02 02:06:22;;;;;;;0.30;0.30;;;;;;;23.59;43.53;101737.84;5064152;28;20043;-41
2022/09/02 02:08:48;;;;;;;0.43;0.30;;;;;;;23.59;43.96;101739.72;5052446;28;20037;-45
2022/09/02 02:11:21;;;;;;;0.63;0.40;;;;;;;23.57;43.79;101739.91;5062039;28;20017;-41
2022/09/02 02:13:47;;;;;;;0.38;0.30;;;;;;;23.58;43.79;101740.75;5053409;28;20021;-43
2022/09/02 02:16:12;;;;;;;0.50;0.40;;;;;;;23.57;43.76;101736.34;5058117;28;20029;-42
2022/09/02 02:18:38;;;;;;;0.47;0.30;;;;;;;23.50;43.87;101730.78;5052763;28;20028;-42
2022/09/02 02:21:03;;;;;;;0.50;0.30;;;;;;;23.56;43.78;101734.66;5060108;28;20154;-47
2022/09/02 02:23:28;;;;;;;0.50;0.30;;;;;;;23.55;43.62;101728.38;5063718;28;20056;-45
2022/09/02 02:25:54;;;;;;;0.30;0.30;;;;;;;23.55;43.78;101733.81;5062599;28;20746;-46
2022/09/02 02:28:19;;;;;;;0.22;0.20;;;;;;;23.54;43.63;101736.72;5055467;28;20036;-41
2022/09/02 02:30:45;;;;;;;0.40;0.20;;;;;;;23.54;43.79;101725.84;5060470;28;20029;-44
2022/09/02 02:33:10;;;;;;;0.38;0.30;;;;;;;23.52;43.88;101728.72;5050210;28;20025;-43
2022/09/02 02:35:35;;;;;;;0.50;0.30;;;;;;;23.52;43.73;101728.72;5050756;28;20029;-40
2022/09/02 02:38:00;;;;;;;0.63;0.40;;;;;;;23.50;43.58;101725.38;5057446;28;20077;-44
2022/09/02 02:40:26;;;;;;;0.40;0.30;;;;;;;23.50;43.77;101722.66;5054301;28;20122;-42
2022/09/02 02:42:52;;;;;;;0.20;0.20;;;;;;;23.50;43.97;101725.38;5063118;28;20052;-42
2022/09/02 02:45:17;;;;;;;1.20;0.20;;;;;;;23.50;43.88;101727.25;5055914;28;20497;-41
2022/09/02 02:47:45;;;;;;;0.30;0.30;;;;;;;23.49;43.65;101723.69;5057276;28;20029;-44
2022/09/02 02:50:12;;;;;;;1.00;0.30;;;;;;;23.49;43.70;101723.69;5049904;28;20021;-45
2022/09/02 02:52:39;;;;;;;0.30;0.30;;;;;;;23.48;43.76;101729.28;5062118;28;20558;-46
2022/09/02 02:55:05;;;;;;;0.30;0.30;;;;;;;23.41;43.78;101715.59;5049749;28;20020;-43
2022/09/02 02:57:31;;;;;;;0.40;0.30;;;;;;;23.46;43.47;101729.47;5053121;28;20057;-42
2022/09/02 02:59:56;;;;;;;0.40;0.40;;;;;;;23.47;43.62;101733.03;5059738;28;20036;-45
2022/09/02 03:02:22;;;;;;;0.50;0.50;;;;;;;23.43;43.82;101722.50;5058361;28;20021;-42
2022/09/02 03:04:53;;;;;;;0.22;0.22;;;;;;;23.45;43.48;101720.47;5063022;28;20115;-42
2022/09/02 03:07:18;;;;;;;0.25;0.20;;;;;;;23.45;43.81;101720.47;5049647;28;20075;-42
2022/09/02 03:09:43;;;;;;;0.40;0.25;;;;;;;23.44;43.59;101715.22;5063591;28;20018;-42
2022/09/02 03:12:08;;;;;;;0.35;0.30;;;;;;;23.42;43.66;101709.13;5062886;28;20057;-44
2022/09/02 03:14:35;;;;;;;0.40;0.30;;;;;;;23.42;43.64;101712.69;5063345;28;20032;-42
2022/09/02 03:17:00;;;;;;;0.73;0.30;;;;;;;23.41;43.83;101711.00;5063150;28;20041;-42
2022/09/02 03:19:26;;;;;;;0.20;0.20;;;;;;;23.41;43.57;101707.44;5062679;28;20116;-41
2022/09/02 03:21:52;;;;;;;0.20;0.20;;;;;;;23.41;43.78;101710.16;5063135;28;20036;-45
2022/09/02 03:24:17;;;;;;;0.30;0.30;;;;;;;23.41;43.35;101718.31;5060827;28;20056;-42
2022/09/02 03:26:42;;;;;;;1.20;0.30;;;;;;;23.38;43.57;101715.94;5063256;28;20021;-45
2022/09/02 03:29:08;;;;;;;0.73;0.40;;;;;;;23.40;43.61;101716.59;5063513;28;20043;-45
2022/09/02 03:31:33;;;;;;;0.50;0.30;;;;;;;23.40;43.61;101716.59;5063514;28;20021;-43
2022/09/02 03:33:59;;;;;;;0.32;0.30;;;;;;;23.39;43.66;101713.03;5062287;28;20033;-41
2022/09/02 03:36:28;;;;;;;0.50;0.40;;;;;;;23.38;43.46;101714.06;5062915;28;20021;-43
2022/09/02 03:38:54;;;;;;;0.30;0.25;;;;;;;23.36;43.59;101709.81;5049017;28;20047;-45
2022/09/02 03:41:19;;;;;;;0.20;0.20;;;;;;;23.36;43.52;101710.69;5057354;28;20093;-44
2022/09/02 03:43:45;;;;;;;0.32;0.30;;;;;;;23.36;43.57;101716.13;5054308;28;20078;-42
2022/09/02 03:46:10;;;;;;;0.30;0.30;;;;;;;23.35;43.47;101705.44;5048808;28;20035;-43
2022/09/02 03:48:35;;;;;;;0.20;0.20;;;;;;;23.31;43.37;101698.69;5052009;28;20068;-43
2022/09/02 03:51:01;;;;;;;0.25;0.20;;;;;;;23.34;43.58;101698.31;5056951;28;20051;-42
2022/09/02 03:53:27;;;;;;;0.32;0.30;;;;;;;23.32;43.60;101693.09;5050201;28;20088;-43
2022/09/02 03:55:53;;;;;;;0.45;0.30;;;;;;;23.34;43.45;101698.31;5049385;28;20025;-40
2022/09/02 03:58:19;;;;;;;0.50;0.30;;;;;;;23.34;43.78;101698.31;5056801;28;20068;-44
2022/09/02 04:00:50;;;;;;;0.20;0.20;;;;;;;23.33;43.61;101688.50;5054460;28;20032;-43
2022/09/02 04:03:15;;;;;;;0.35;0.30;;;;;;;23.32;43.66;101697.66;5055057;28;20085;-42
2022/09/02 04:05:45;;;;;;;0.20;0.20;;;;;;;23.32;43.52;101693.09;5062271;28;20025;-44
2022/09/02 04:08:11;;;;;;;0.38;0.30;;;;;;;23.31;43.55;101685.09;5059529;28;20442;-41
2022/09/02 04:10:37;;;;;;;0.52;0.25;;;;;;;23.30;43.62;101689.69;5051754;28;20094;-44
2022/09/02 04:13:02;;;;;;;0.40;0.40;;;;;;;23.30;43.67;101680.72;5061709;28;20025;-43
2022/09/02 04:15:27;;;;;;;0.22;0.20;;;;;;;23.29;43.57;101682.59;5049561;28;20303;-40
2022/09/02 04:17:52;;;;;;;0.40;0.20;;;;;;;23.29;43.75;101681.75;5048102;28;20092;-42
2022/09/02 04:20:18;;;;;;;0.55;0.30;;;;;;;23.28;43.63;101680.03;5056858;28;20056;-41
2022/09/02 04:22:43;;;;;;;0.40;0.30;;;;;;;23.27;43.66;101681.91;5052784;28;20082;-43
2022/09/02 04:25:08;;;;;;;0.73;0.30;;;;;;;23.27;43.64;101673.75;5048716;28;20042;-41
2022/09/02 04:27:34;;;;;;;0.30;0.30;;;;;;;23.26;43.56;101677.50;5054245;28;20045;-41
2022/09/02 04:30:00;;;;;;;0.30;0.30;;;;;;;23.22;43.66;101664.47;5056656;28;20025;-41
2022/09/02 04:32:25;;;;;;;0.70;0.30;;;;;;;23.26;43.66;101669.38;5048680;28;20046;-42
2022/09/02 04:34:51;;;;;;;0.30;0.30;;;;;;;23.26;43.49;101671.25;5063348;28;20454;-43
2022/09/02 04:37:16;;;;;;;0.30;0.30;;;;;;;23.18;43.53;101664.00;5065146;28;20025;-42
2022/09/02 04:39:41;;;;;;;0.22;0.20;;;;;;;23.25;43.55;101669.56;5066456;28;20046;-43
2022/09/02 04:42:06;;;;;;;0.47;0.30;;;;;;;23.23;43.47;101669.72;5065911;28;20029;-44
2022/09/02 04:44:32;;;;;;;1.05;0.20;;;;;;;23.25;43.55;101675.81;5066155;28;20026;-42
2022/09/02 04:46:58;;;;;;;0.50;0.20;;;;;;;23.20;43.53;101668.22;5065950;28;20024;-43
2022/09/02 04:49:23;;;;;;;1.20;0.20;;;;;;;23.25;43.51;101675.81;5065193;28;20111;-41
2022/09/02 04:51:49;;;;;;;0.55;0.30;;;;;;;23.25;43.61;101677.69;5066014;28;20073;-42
2022/09/02 04:54:14;;;;;;;0.20;0.20;;;;;;;23.24;43.38;101676.00;5064730;28;20020;-43
2022/09/02 04:56:40;;;;;;;0.40;0.30;;;;;;;23.24;43.49;101682.28;5065069;28;20025;-43
2022/09/02 04:59:06;;;;;;;0.30;0.30;;;;;;;23.24;43.52;101676.84;5065531;28;20044;-47
2022/09/02 05:01:33;;;;;;;0.30;0.30;;;;;;;23.26;43.61;101676.66;5065082;28;20025;-43
2022/09/02 05:03:58;;;;;;;0.45;0.30;;;;;;;23.25;43.69;101681.25;5063772;28;20033;-45
2022/09/02 05:06:26;;;;;;;0.40;0.30;;;;;;;23.25;43.74;101677.69;5058427;28;20048;-45
2022/09/02 05:08:53;;;;;;;0.20;0.20;;;;;;;23.25;43.56;101675.81;5064683;28;20025;-41
2022/09/02 05:11:21;;;;;;;0.35;0.20;;;;;;;23.24;43.84;101676.84;5065053;28;20024;-43
2022/09/02 05:13:50;;;;;;;0.22;0.20;;;;;;;23.25;43.95;101672.28;5062420;28;20077;-42
2022/09/02 05:16:17;;;;;;;0.47;0.30;;;;;;;23.25;43.69;101672.28;5064798;28;20017;-41
2022/09/02 05:18:43;;;;;;;0.40;0.35;;;;;;;23.26;43.68;101676.66;5064335;28;20110;-42
2022/09/02 05:21:08;;;;;;;0.32;0.30;;;;;;;23.24;43.62;101676.84;5064644;28;20475;-42
2022/09/02 05:23:34;;;;;;;0.30;0.30;;;;;;;23.26;43.66;101671.25;5061078;28;20018;-44
2022/09/02 05:26:03;;;;;;;0.63;0.30;;;;;;;23.26;43.62;101666.66;5046250;28;20498;-44
2022/09/02 05:28:28;;;;;;;0.30;0.30;;;;;;;23.26;43.93;101677.50;5047436;28;20021;-44
2022/09/02 05:30:53;;;;;;;0.30;0.30;;;;;;;23.26;43.82;101672.06;5046136;28;20059;-42
2022/09/02 05:33:19;;;;;;;0.30;0.20;;;;;;;23.26;43.67;101677.50;5046560;28;20025;-42
2022/09/02 05:35:44;;;;;;;0.30;0.20;;;;;;;23.27;43.75;101675.63;5060380;28;20040;-44
2022/09/02 05:38:09;;;;;;;0.65;0.38;;;;;;;23.24;43.77;101671.44;5057044;28;20028;-45
2022/09/02 05:40:37;;;;;;;0.30;0.20;;;;;;;23.27;43.64;101672.91;5058443;28;20122;-47
2022/09/02 05:43:03;;;;;;;0.50;0.40;;;;;;;23.26;43.68;101677.50;5063846;28;20016;-44
2022/09/02 05:45:28;;;;;;;1.40;0.30;;;;;;;23.27;43.75;101675.63;5064073;28;20287;-45
2022/09/02 05:47:53;;;;;;;0.35;0.30;;;;;;;23.26;43.63;101673.94;5062967;28;20028;-45
2022/09/02 05:50:19;;;;;;;0.20;0.20;;;;;;;23.26;43.62;101677.50;5064074;28;20016;-46
2022/09/02 05:52:46;;;;;;;0.47;0.43;;;;;;;23.27;43.94;101678.34;5063771;28;20013;-43
2022/09/02 05:55:11;;;;;;;0.30;0.30;;;;;;;23.27;43.95;101675.63;5063117;28;20478;-41
2022/09/02 05:57:36;;;;;;;0.20;0.20;;;;;;;23.26;43.81;101674.78;5063675;28;20075;-43
2022/09/02 06:00:04;;;;;;;0.20;0.20;;;;;;;23.28;43.57;101669.19;5062593;28;20029;-42
2022/09/02 06:02:30;;;;;;;0.40;0.30;;;;;;;23.27;44.07;101671.06;5061167;28;20287;-42
2022/09/02 06:04:55;;;;;;;0.30;0.28;;;;;;;23.26;43.71;101665.81;5061223;28;20436;-41
2022/09/02 06:07:22;;;;;;;0.38;0.30;;;;;;;23.28;43.87;101674.59;5062153;28;20017;-46
2022/09/02 06:09:48;;;;;;;0.40;0.30;;;;;;;23.30;43.96;101684.25;5063798;28;20025;-49
2022/09/02 06:12:15;;;;;;;0.40;0.30;;;;;;;23.30;43.87;101668.00;5055125;28;20016;-52
2022/09/02 06:14:41;;;;;;;0.22;0.22;;;;;;;23.31;43.73;101669.66;5064075;28;20028;-49
2022/09/02 06:17:07;;;;;;;0.73;0.30;;;;;;;23.31;44.10;101672.38;5046452;28;20032;-46
2022/09/02 06:19:32;;;;;;;0.25;0.22;;;;;;;23.31;44.14;101668.81;5045197;28;20113;-43
2022/09/02 06:21:59;;;;;;;0.75;0.40;;;;;;;23.31;44.11;101671.53;5047070;28;20066;-45
2022/09/02 06:24:24;;;;;;;0.38;0.30;;;;;;;23.31;44.05;101666.94;5045052;28;20505;-45
2022/09/02 06:26:50;;;;;;;0.40;0.30;;;;;;;23.33;44.00;101664.09;5046831;28;20033;-46
2022/09/02 06:29:15;;;;;;;0.20;0.20;;;;;;;23.32;44.15;101667.78;5045482;28;20029;-43
2022/09/02 06:31:43;;;;;;;0.73;0.30;;;;;;;23.27;44.17;101660.19;5045461;28;20459;-44
2022/09/02 06:34:11;;;;;;;0.52;0.30;;;;;;;23.32;44.03;101665.09;5055729;28;20437;-49
2022/09/02 06:36:36;;;;;;;0.30;0.30;;;;;;;23.32;43.96;101663.25;5052709;28;20025;-45
2022/09/02 06:39:02;;;;;;;0.50;0.30;;;;;;;23.31;44.01;101661.53;5062395;28;20025;-46
2022/09/02 06:41:29;;;;;;;0.22;0.20;;;;;;;23.32;43.94;101668.66;5050616;28;20051;-49
2022/09/02 06:43:57;;;;;;;2.90;0.87;;;;;;;23.28;43.83;101661.91;5048896;28;20070;-46
2022/09/02 06:46:25;;;;;;;0.40;0.30;;;;;;;23.33;43.87;101664.91;5057765;28;20019;-44
2022/09/02 06:48:50;;;;;;;0.30;0.30;;;;;;;23.30;43.91;101651.72;5054763;28;20045;-49
2022/09/02 06:51:21;;;;;;;0.57;0.30;;;;;;;23.35;44.01;101662.84;5049744;28;20032;-45
2022/09/02 06:53:47;;;;;;;0.40;0.30;;;;;;;23.34;43.96;101669.31;5052641;28;20041;-47
2022/09/02 06:56:12;;;;;;;0.52;0.30;;;;;;;23.35;43.78;101660.16;5057611;28;20040;-48
2022/09/02 06:58:37;;;;;;;0.20;0.20;;;;;;;23.27;43.88;101646.63;5051665;28;20079;-47
2022/09/02 07:01:03;;;;;;;0.30;0.30;;;;;;;23.37;44.01;101662.69;5048962;28;20021;-45
2022/09/02 07:06:12;;;;;;;0.30;0.20;;;;;;;23.39;43.69;101666.06;5054764;28;20024;-43
2022/09/02 07:08:39;;;;;;;0.43;0.35;;;;;;;23.40;43.87;101665.03;5062928;28;20033;-44
2022/09/02 07:11:06;;;;;;;0.20;0.20;;;;;;;23.41;43.61;101664.03;5063400;28;20032;-49
2022/09/02 07:13:33;;;;;;;0.30;0.30;;;;;;;23.42;43.80;101666.56;5062883;28;20025;-45
2022/09/02 07:15:58;;;;;;;0.60;0.40;;;;;;;23.43;43.62;101654.66;5052076;28;20028;-44
2022/09/02 07:18:24;;;;;;;0.52;0.40;;;;;;;23.47;43.55;101659.75;5056857;28;20033;-48
2022/09/02 07:20:49;;;;;;;0.68;0.40;;;;;;;23.47;43.74;101666.00;5050549;28;20025;-50
2022/09/02 07:23:15;;;;;;;0.40;0.30;;;;;;;23.46;43.53;101658.91;5062257;28;20600;-47
2022/09/02 07:25:41;;;;;;;0.90;0.40;;;;;;;23.49;43.65;101663.09;5062979;28;20028;-48
2022/09/02 07:28:07;;;;;;;0.73;0.40;;;;;;;23.51;43.55;101659.19;5062946;28;20029;-46
2022/09/02 07:30:33;;;;;;;0.70;0.30;;;;;;;23.51;43.51;101659.19;5054255;28;20451;-51
2022/09/02 07:32:58;;;;;;;0.45;0.40;;;;;;;23.53;43.60;101656.28;5053398;28;20032;-48
2022/09/02 07:35:24;;;;;;;1.85;0.30;;;;;;;23.53;43.48;101659.00;5062732;28;20039;-50
2022/09/02 07:37:49;;;;;;;0.30;0.30;;;;;;;23.54;43.37;101658.00;5062333;28;20028;-46
2022/09/02 07:40:15;;;;;;;0.52;0.40;;;;;;;23.55;43.64;101655.09;5050801;28;20130;-44
2022/09/02 07:42:40;;;;;;;0.50;0.30;;;;;;;23.54;43.44;101647.97;5057285;28;20033;-45
2022/09/02 07:45:07;;;;;;;0.30;0.30;;;;;;;23.56;43.47;101650.50;5051714;28;20021;-44
2022/09/02 07:47:33;;;;;;;0.77;0.40;;;;;;;23.55;43.29;101648.81;5044557;28;20052;-44
2022/09/02 07:49:58;;;;;;;0.38;0.30;;;;;;;23.54;42.92;101647.97;5049303;28;20618;-44
2022/09/02 07:52:23;;;;;;;0.95;0.40;;;;;;;23.54;42.88;101652.56;5043044;28;20037;-49
2022/09/02 07:54:48;;;;;;;0.68;0.30;;;;;;;23.54;42.68;101644.44;5057114;28;20062;-45
2022/09/02 07:57:14;;;;;;;1.15;0.38;;;;;;;23.55;42.82;101651.53;5057892;28;20049;-49
2022/09/02 07:59:39;;;;;;;0.40;0.30;;;;;;;23.56;42.55;101650.50;5057668;28;20044;-45
2022/09/02 08:02:04;;;;;;;0.68;0.40;;;;;;;23.57;42.85;101650.31;5051143;28;20021;-47
2022/09/02 08:04:30;;;;;;;0.68;0.30;;;;;;;23.60;42.88;101649.13;5061162;28;20048;-44
2022/09/02 08:06:55;;;;;;;1.45;0.57;;;;;;;23.62;42.71;101644.38;5060175;28;20032;-47
2022/09/02 08:09:21;;;;;;;3.25;0.40;;;;;;;23.59;42.56;101642.00;5060744;28;20021;-48
2022/09/02 08:11:48;;;;;;;0.40;0.30;;;;;;;23.64;42.54;101643.13;5062112;28;20036;-43
2022/09/02 08:14:17;;;;;;;0.30;0.30;;;;;;;23.68;42.73;101644.50;5056667;28;20040;-49
2022/09/02 08:16:43;;;;;;;0.70;0.30;;;;;;;23.71;42.80;101646.00;5059393;28;20028;-46
2022/09/02 08:19:09;;;;;;;0.95;0.60;;;;;;;23.73;42.64;101638.50;5058551;28;20033;-45
2022/09/02 08:21:35;;;;;;;0.50;0.30;;;;;;;23.75;42.58;101639.19;5065857;28;20055;-45
2022/09/02 08:24:00;;;;;;;0.35;0.32;;;;;;;23.77;42.59;101637.13;5065791;28;20047;-48
2022/09/02 08:26:27;;;;;;;0.45;0.30;;;;;;;23.77;42.57;101637.13;5066107;28;20037;-46
2022/09/02 08:28:53;;;;;;;0.68;0.38;;;;;;;23.78;42.37;101627.94;5056955;28;20028;-46
2022/09/02 08:31:19;;;;;;;0.70;0.70;;;;;;;23.79;42.47;101632.38;5066074;28;20021;-46
2022/09/02 08:33:44;;;;;;;0.85;0.38;;;;;;;23.80;42.29;101628.63;5065247;28;20044;-46
2022/09/02 08:36:13;;;;;;;0.60;0.40;;;;;;;23.81;42.11;101629.47;5065675;28;20027;-47
2022/09/02 08:38:38;;;;;;;0.45;0.32;;;;;;;23.85;42.37;101630.78;5065602;28;20070;-43
2022/09/02 08:41:31;;;;;;;0.40;0.40;;;;;;;23.86;42.10;101627.03;5065699;28;20097;-44
2022/09/02 08:43:58;;;;;;;0.30;0.20;;;;;;;23.89;41.86;101632.09;5065039;28;20056;-43
2022/09/02 08:46:25;;;;;;;0.88;0.50;;;;;;;23.90;42.00;101617.47;5044216;28;20026;-44
2022/09/02 08:49:10;;;;;;;0.50;0.40;;;;;;;23.95;41.94;101624.03;5052188;28;20091;-46
2022/09/02 08:51:48;;;;;;;0.80;0.40;;;;;;;23.98;41.82;101616.56;5056635;28;20024;-46
2022/09/02 08:54:26;;;;;;;0.50;0.35;;;;;;;24.01;41.88;101616.19;5062179;28;20025;-44
2022/09/02 08:56:51;;;;;;;2.10;0.40;;;;;;;24.05;41.87;101618.34;5048240;28;20040;-47
2022/09/02 08:59:25;;;;;;;0.35;0.35;;;;;;;24.11;41.85;101612.16;5058489;28;20025;-46
2022/09/02 09:02:20;;;;;;;0.60;0.40;;;;;;;24.11;41.87;101612.16;5059072;28;20030;-46
2022/09/02 09:04:51;;;;;;;1.15;0.40;;;;;;;24.10;41.47;101609.66;5060684;28;20077;-44
2022/09/02 09:07:45;;;;;;;0.50;0.40;;;;;;;24.09;41.51;101614.25;5052530;28;20047;-46
2022/09/02 09:10:21;;;;;;;0.52;0.38;;;;;;;24.06;41.57;101611.06;5056099;28;20142;-48
2022/09/02 09:13:03;;;;;;;0.93;0.40;;;;;;;24.00;41.37;101601.78;5056592;28;20023;-43
2022/09/02 09:15:46;;;;;;;0.40;0.30;;;;;;;24.01;41.36;101613.50;5059635;28;20021;-45
2022/09/02 09:18:33;;;;;;;0.93;0.50;;;;;;;23.99;41.32;101601.94;5058473;28;20529;-43
2022/09/02 09:20:58;;;;;;;0.43;0.25;;;;;;;23.97;41.20;101599.44;5039388;28;20025;-46
2022/09/02 09:23:32;;;;;;;0.63;0.40;;;;;;;23.98;41.54;101592.97;5048928;28;20039;-47
2022/09/02 09:26:11;;;;;;;1.02;0.40;;;;;;;23.98;41.48;101592.13;5056598;28;20051;-44
2022/09/02 09:28:42;;;;;;;0.52;0.40;;;;;;;23.98;41.61;101597.56;5050641;28;20032;-46
2022/09/02 09:31:14;;;;;;;0.73;0.40;;;;;;;23.98;41.34;101589.41;5058439;28;20074;-43
2022/09/02 09:33:53;;;;;;;0.90;0.30;;;;;;;23.99;41.48;101591.09;5056003;28;20088;-45
2022/09/02 09:36:19;;;;;;;1.17;0.60;;;;;;;23.99;41.49;101585.66;5051262;28;20017;-42
2022/09/02 09:38:44;;;;;;;0.55;0.50;;;;;;;24.00;41.44;101590.03;5059151;28;20032;-47
2022/09/02 09:41:13;;;;;;;0.45;0.30;;;;;;;24.01;41.55;101589.88;5054220;28;20025;-48
2022/09/02 09:43:38;;;;;;;0.73;0.50;;;;;;;23.95;41.68;101574.31;5055203;28;20032;-46
2022/09/02 09:46:26;;;;;;;0.63;0.50;;;;;;;23.92;41.64;101563.84;5053057;28;20037;-46
2022/09/02 09:48:52;;;;;;;0.50;0.30;;;;;;;24.05;41.64;101582.19;5052515;28;20068;-49
2022/09/02 09:51:17;;;;;;;0.95;0.50;;;;;;;24.06;41.58;101575.72;5056849;28;20390;-43
2022/09/02 09:53:43;;;;;;;0.68;0.40;;;;;;;24.07;41.51;101574.69;5054646;28;20029;-51
2022/09/02 09:56:15;;;;;;;0.40;0.30;;;;;;;24.10;41.50;101577.88;5058088;28;20029;-45
2022/09/02 09:58:40;;;;;;;0.47;0.38;;;;;;;24.11;41.55;101565.16;5054587;28;20513;-45
2022/09/02 10:01:20;;;;;;;1.33;0.50;;;;;;;24.13;41.76;101560.38;5056040;28;20036;-44
2022/09/02 10:04:02;;;;;;;0.45;0.30;;;;;;;24.14;41.90;101562.91;5058105;28;20059;-46
2022/09/02 10:06:30;;;;;;;0.82;0.40;;;;;;;24.16;41.54;101560.81;5058434;28;20025;-49
2022/09/02 10:09:16;;;;;;;0.63;0.40;;;;;;;24.18;41.82;101560.66;5059197;28;20032;-49
2022/09/02 10:11:55;;;;;;;0.52;0.35;;;;;;;24.19;41.79;101555.03;5055674;28;20033;-48
2022/09/02 10:14:20;;;;;;;0.35;0.30;;;;;;;24.20;41.77;101558.59;5058043;28;20040;-49
2022/09/02 10:17:05;;;;;;;1.10;0.50;;;;;;;24.23;42.04;101544.63;5056393;28;20025;-46
2022/09/02 10:19:44;;;;;;;1.10;0.43;;;;;;;24.20;41.97;101543.13;5053926;28;20029;-46
2022/09/02 10:22:46;;;;;;;0.57;0.43;;;;;;;24.23;41.86;101541.91;5074169;28;20024;-45
2022/09/02 10:25:41;;;;;;;1.10;0.50;;;;;;;24.26;42.08;101544.25;5053601;28;20409;-45
2022/09/02 10:28:22;;;;;;;0.32;0.30;;;;;;;24.29;42.01;101545.72;5019278;28;20380;-45
2022/09/02 10:31:18;;;;;;;0.50;0.30;;;;;;;24.30;41.83;101548.28;5017639;28;20109;-45
2022/09/02 10:34:07;;;;;;;1.52;0.50;;;;;;;24.33;41.82;101541.59;5015970;28;20040;-50
2022/09/02 10:36:40;;;;;;;0.80;0.40;;;;;;;24.30;42.08;101537.41;5018821;28;20168;-43
2022/09/02 10:39:28;;;;;;;1.90;0.60;;;;;;;24.35;41.96;101534.13;4999223;28;20041;-44
2022/09/02 10:41:54;;;;;;;;;;;;;;;24.33;41.94;101534.28;5001642;28;20039;-47
2022/09/02 10:44:32;;;;;;;1.00;0.50;;;;;;;24.36;41.85;101527.66;5002706;28;19909;-48
2022/09/02 10:47:09;;;;;;;0.75;0.50;;;;;;;24.38;42.04;101525.59;5002504;28;20503;-46
2022/09/02 10:49:47;;;;;;;0.82;0.50;;;;;;;24.40;42.13;101524.38;5018201;28;20029;-42
2022/09/02 10:52:30;;;;;;;0.80;0.55;;;;;;;24.42;42.17;101521.47;5012395;28;20030;-45
2022/09/02 10:55:03;;;;;;;1.17;0.45;;;;;;;24.44;41.99;101527.56;5014671;28;20029;-41
2022/09/02 10:57:32;;;;;;;0.65;0.38;;;;;;;24.48;42.14;101526.16;5017634;28;20050;-43
2022/09/02 11:00:07;;;;;;;0.63;0.40;;;;;;;24.51;42.20;101517.63;5019070;28;20029;-43
2022/09/02 11:02:39;;;;;;;0.73;0.43;;;;;;;24.54;42.16;101519.94;5001649;28;20518;-46
2022/09/02 11:05:11;;;;;;;0.50;0.32;;;;;;;24.55;42.20;101510.78;5045656;28;20095;-40
2022/09/02 11:07:59;;;;;;;0.90;0.52;;;;;;;24.59;42.30;101516.66;5050288;28;20151;-45
2022/09/02 11:10:36;;;;;;;0.50;0.40;;;;;;;24.60;42.29;101508.31;5053458;28;20020;-43
2022/09/02 11:13:06;;;;;;;0.35;0.30;;;;;;;24.60;42.38;101511.03;5052542;28;20340;-44
2022/09/02 11:15:40;;;;;;;0.85;0.50;;;;;;;24.60;42.32;101504.75;5050024;28;20036;-40
2022/09/02 11:18:15;;;;;;;2.22;0.60;;;;;;;24.60;42.44;101502.88;5053396;28;20025;-41
2022/09/02 11:21:03;;;;;;;0.93;0.55;;;;;;;24.59;42.60;101501.19;5054215;28;20544;-41
2022/09/02 11:23:31;;;;;;;1.02;0.65;;;;;;;24.58;42.57;101501.38;5051723;28;20200;-43
2022/09/02 11:26:03;;;;;;;0.85;0.60;;;;;;;24.58;42.86;101498.66;5051089;28;20028;-41
2022/09/02 11:28:52;;;;;;;0.80;0.50;;;;;;;24.56;42.70;101496.16;5056040;28;20039;-47
2022/09/02 11:31:26;;;;;;;1.08;0.60;;;;;;;24.55;42.70;101499.91;5047969;28;20029;-45
2022/09/02 11:34:24;;;;;;;2.42;0.63;;;;;;;24.57;42.75;101491.53;5054066;28;20021;-43